Terminal Aerodrome Forecast
Issued by NWS

Home | Current Version | Previous Version | Text Only | Print | Product List | Glossary On
Versions: 1 2 3 4 5 6 7 8 9 10 11 12 13 14 15 16 17 18 19 20 21 22 23 24 25 26
000
FTUS44 KOUN 241730 CCA
TAFPNC
TAF COR
KPNC 241730Z 2418/2518 19013KT P6SM BKN250
      TEMPO 2418/2420 4SM -TSRA BKN050CB OVC100
     FM242200 18017G25KT P6SM BKN200
     FM250000 15012KT P6SM BKN250 PROB30 2506/2509 4SM TSRA BKN050CB
      OVC100
     FM251300 13008KT 6SM -SHRA OVC015
     FM251700 16006KT 6SM -SHRA OVC007=

USA.gov is the U.S. government's official web portal to all federal, state and local government web resources and services.